createdAt,value
2023-03-16T00:00:53.266Z,1.60
2023-03-16T00:03:20.647Z,1.83
2023-03-16T00:05:52.524Z,2.00
2023-03-16T00:08:20.188Z,1.60
2023-03-16T00:10:47.735Z,1.70
2023-03-16T00:13:15.864Z,1.57
2023-03-16T00:15:43.478Z,1.50
2023-03-16T00:18:10.636Z,1.43
2023-03-16T00:20:37.749Z,1.70
2023-03-16T00:23:05.631Z,1.47
2023-03-16T00:25:33.542Z,1.57
2023-03-16T00:28:03.601Z,1.50
2023-03-16T00:30:32.707Z,1.37
2023-03-16T00:32:59.956Z,1.67
2023-03-16T00:35:27.171Z,1.87
2023-03-16T00:37:57.396Z,1.47
2023-03-16T00:40:24.859Z,1.80
2023-03-16T00:42:52.073Z,1.60
2023-03-16T00:45:19.221Z,1.50
2023-03-16T00:47:46.358Z,1.53
2023-03-16T00:50:13.484Z,1.50
2023-03-16T00:52:42.180Z,1.70
2023-03-16T00:55:09.470Z,1.60
2023-03-16T00:57:36.725Z,1.50
2023-03-16T01:00:12.834Z,1.70
2023-03-16T01:02:40.140Z,1.90
2023-03-16T01:05:07.691Z,1.43
2023-03-16T01:07:36.315Z,1.67
2023-03-16T01:10:04.019Z,1.77
2023-03-16T01:12:31.182Z,1.50
2023-03-16T01:14:58.530Z,1.70
2023-03-16T01:17:25.741Z,1.50
2023-03-16T01:19:53.110Z,1.70
2023-03-16T01:22:21.417Z,1.80
2023-03-16T01:24:48.564Z,1.53
2023-03-16T01:27:15.868Z,1.70
2023-03-16T01:29:43.723Z,1.73
2023-03-16T01:32:12.052Z,1.40
2023-03-16T01:34:39.204Z,1.50
2023-03-16T01:37:06.394Z,1.77
2023-03-16T01:39:33.565Z,1.73
2023-03-16T01:42:00.751Z,1.43
2023-03-16T01:44:30.654Z,2.00
2023-03-16T01:46:58.189Z,1.77
2023-03-16T01:49:25.320Z,2.20
2023-03-16T01:52:00.928Z,1.93
2023-03-16T01:54:33.907Z,1.83
2023-03-16T01:57:09.941Z,1.73
2023-03-16T01:59:43.271Z,1.80
2023-03-16T02:02:10.709Z,2.00
2023-03-16T02:04:42.242Z,1.80
2023-03-16T02:07:10.032Z,1.73
2023-03-16T02:09:46.427Z,1.70
2023-03-16T02:12:17.853Z,1.67
2023-03-16T02:14:49.447Z,1.70
2023-03-16T02:17:17.988Z,1.47
2023-03-16T02:20:04.645Z,1.40
2023-03-16T02:22:35.948Z,1.50
2023-03-16T02:25:03.210Z,1.70
2023-03-16T02:27:39.167Z,1.70
2023-03-16T02:30:11.744Z,1.67
2023-03-16T02:32:40.190Z,1.60
2023-03-16T02:35:09.159Z,1.60
2023-03-16T02:37:36.325Z,1.40
2023-03-16T02:40:17.652Z,1.40
2023-03-16T02:42:44.886Z,1.70
2023-03-16T02:45:12.347Z,1.53
2023-03-16T02:47:44.401Z,1.63
2023-03-16T02:50:13.088Z,1.47
2023-03-16T02:52:41.074Z,1.50
2023-03-16T02:55:08.407Z,1.30
2023-03-16T02:57:35.769Z,1.70
2023-03-16T03:00:06.582Z,1.80
2023-03-16T03:02:33.716Z,1.70
2023-03-16T03:05:01.975Z,1.80
2023-03-16T03:07:31.862Z,1.87
2023-03-16T03:09:59.260Z,1.90
2023-03-16T03:12:26.511Z,1.80
2023-03-16T03:14:53.641Z,1.70
2023-03-16T03:17:20.817Z,1.80
2023-03-16T03:19:48.038Z,1.70
2023-03-16T03:22:18.564Z,1.50
2023-03-16T03:24:45.859Z,1.90
2023-03-16T03:27:12.997Z,1.87
2023-03-16T03:29:40.165Z,1.90
2023-03-16T03:32:08.047Z,1.90
2023-03-16T03:34:35.225Z,1.90
2023-03-16T03:37:02.448Z,2.30
2023-03-16T03:39:29.580Z,2.30
2023-03-16T03:41:56.702Z,2.50
2023-03-16T03:44:24.405Z,2.00
2023-03-16T03:46:51.921Z,2.20
2023-03-16T03:49:19.093Z,2.17
2023-03-16T03:51:46.970Z,2.07
2023-03-16T03:54:14.088Z,1.90
2023-03-16T03:56:41.209Z,2.30
2023-03-16T03:59:08.345Z,2.10
2023-03-16T04:01:35.486Z,1.87
2023-03-16T04:04:02.636Z,1.90
2023-03-16T04:06:29.784Z,2.03
2023-03-16T04:08:57.229Z,1.90
2023-03-16T04:11:24.338Z,2.30
2023-03-16T04:13:53.426Z,1.80
2023-03-16T04:16:21.930Z,2.00
2023-03-16T04:18:49.209Z,2.20
2023-03-16T04:21:17.781Z,2.00
2023-03-16T04:23:45.059Z,1.80
2023-03-16T04:26:12.269Z,1.57
2023-03-16T04:28:39.585Z,1.60
2023-03-16T04:31:07.919Z,1.77
2023-03-16T04:33:35.568Z,1.60
2023-03-16T04:36:02.865Z,1.43
2023-03-16T04:38:30.416Z,1.40
2023-03-16T04:40:57.585Z,1.60
2023-03-16T04:43:24.741Z,1.80
2023-03-16T04:45:51.975Z,1.70
2023-03-16T04:48:19.473Z,1.90
2023-03-16T04:50:48.002Z,1.80
2023-03-16T04:53:15.244Z,2.10
2023-03-16T04:55:42.366Z,2.20
2023-03-16T04:58:09.507Z,1.90
2023-03-16T05:00:36.617Z,1.83
2023-03-16T05:03:04.312Z,2.20
2023-03-16T05:05:31.648Z,1.90
2023-03-16T05:07:58.830Z,2.00
2023-03-16T05:10:26.318Z,1.50
2023-03-16T05:12:53.671Z,1.77
2023-03-16T05:15:21.344Z,1.83
2023-03-16T05:17:48.561Z,1.80
2023-03-16T05:20:26.137Z,2.00
2023-03-16T05:22:53.449Z,1.97
2023-03-16T05:25:21.508Z,2.03
2023-03-16T05:27:50.354Z,1.90
2023-03-16T05:30:17.988Z,2.03
2023-03-16T05:32:45.283Z,1.80
2023-03-16T05:35:13.680Z,1.70
2023-03-16T05:37:41.881Z,1.80
2023-03-16T05:40:22.822Z,1.80
2023-03-16T05:42:50.913Z,1.80
2023-03-16T05:45:18.514Z,1.60
2023-03-16T05:47:45.709Z,1.50
2023-03-16T05:50:13.313Z,1.90
2023-03-16T05:52:40.894Z,1.70
2023-03-16T05:55:09.572Z,1.70
2023-03-16T05:57:36.720Z,1.70
2023-03-16T06:00:16.169Z,1.70
2023-03-16T06:02:44.116Z,1.70
2023-03-16T06:05:11.712Z,2.23
2023-03-16T06:07:38.867Z,2.10
2023-03-16T06:10:06.669Z,1.60
2023-03-16T06:12:34.534Z,1.73
2023-03-16T06:15:02.281Z,1.90
2023-03-16T06:17:29.471Z,1.63
2023-03-16T06:19:56.647Z,1.60
2023-03-16T06:22:24.967Z,1.60
2023-03-16T06:24:52.342Z,1.30
2023-03-16T06:27:25.246Z,1.93
2023-03-16T06:29:53.033Z,1.80
2023-03-16T06:32:20.373Z,1.60
2023-03-16T06:34:47.891Z,1.73
2023-03-16T06:37:15.104Z,1.50
2023-03-16T06:39:42.354Z,1.80
2023-03-16T06:42:09.497Z,1.50
2023-03-16T06:44:37.447Z,1.40
2023-03-16T06:47:04.838Z,1.60
2023-03-16T06:49:32.037Z,1.70
2023-03-16T06:51:59.225Z,1.90
2023-03-16T06:54:26.918Z,1.60
2023-03-16T06:56:54.060Z,1.90
2023-03-16T06:59:21.575Z,2.70
2023-03-16T07:01:50.225Z,2.00
2023-03-16T07:04:17.476Z,1.70
2023-03-16T07:06:44.617Z,1.60
2023-03-16T07:09:12.540Z,1.67
2023-03-16T07:11:40.097Z,1.93
2023-03-16T07:14:07.392Z,1.90
2023-03-16T07:16:34.666Z,1.67
2023-03-16T07:19:01.834Z,2.00
2023-03-16T07:21:28.998Z,1.90
2023-03-16T07:23:56.312Z,2.03
2023-03-16T07:26:23.415Z,2.17
2023-03-16T07:28:50.670Z,1.67
2023-03-16T07:31:17.945Z,1.77
2023-03-16T07:33:45.101Z,1.93
2023-03-16T07:36:12.318Z,1.63
2023-03-16T07:38:39.974Z,1.80
2023-03-16T07:41:07.176Z,1.97
2023-03-16T07:43:34.473Z,1.50
2023-03-16T07:46:01.665Z,1.80
2023-03-16T07:48:28.821Z,2.30
2023-03-16T07:50:56.066Z,1.90
2023-03-16T07:53:23.284Z,1.77
2023-03-16T07:55:50.408Z,1.90
2023-03-16T07:58:18.223Z,1.90
2023-03-16T08:00:45.413Z,1.80
2023-03-16T08:03:13.827Z,1.83
2023-03-16T08:05:41.640Z,1.93
2023-03-16T08:08:09.669Z,1.87
2023-03-16T08:10:37.267Z,1.63
2023-03-16T08:13:07.664Z,1.93
2023-03-16T08:15:35.075Z,1.90
2023-03-16T08:18:02.600Z,1.70
2023-03-16T08:20:30.402Z,1.80
2023-03-16T08:22:57.832Z,2.20
2023-03-16T08:25:25.282Z,1.80
2023-03-16T08:27:53.081Z,1.77
2023-03-16T08:30:20.821Z,1.90
2023-03-16T08:32:47.997Z,2.00
2023-03-16T08:35:16.791Z,1.77
2023-03-16T08:37:44.367Z,1.90
2023-03-16T08:40:14.917Z,2.47
2023-03-16T08:42:43.052Z,1.63
2023-03-16T08:45:13.747Z,1.80
2023-03-16T08:47:41.479Z,1.70
2023-03-16T08:50:09.650Z,1.90
2023-03-16T08:52:37.124Z,1.73
2023-03-16T08:55:05.787Z,1.87
2023-03-16T08:57:33.663Z,1.53
2023-03-16T09:00:01.330Z,1.73
2023-03-16T09:02:28.656Z,1.63
2023-03-16T09:04:56.270Z,1.70
2023-03-16T09:07:23.507Z,1.53
2023-03-16T09:09:51.128Z,1.67
2023-03-16T09:12:18.699Z,1.70
2023-03-16T09:14:46.006Z,2.20
2023-03-16T09:17:13.205Z,1.80
2023-03-16T09:19:51.086Z,1.50
2023-03-16T09:22:20.064Z,1.80
2023-03-16T09:24:48.385Z,1.80
2023-03-16T09:27:15.639Z,1.70
2023-03-16T09:29:43.414Z,1.70
2023-03-16T09:32:11.057Z,1.73
2023-03-16T09:34:39.177Z,1.70
2023-03-16T09:37:06.371Z,1.60
2023-03-16T09:39:33.498Z,1.90
2023-03-16T09:42:19.301Z,1.70
2023-03-16T09:44:49.426Z,1.70
2023-03-16T09:47:16.735Z,2.33
2023-03-16T09:49:48.519Z,1.93
2023-03-16T09:52:21.581Z,2.00
2023-03-16T09:54:51.516Z,2.00
2023-03-16T09:57:25.819Z,2.17
2023-03-16T09:59:53.182Z,1.70
2023-03-16T10:02:27.149Z,1.80
2023-03-16T10:04:57.569Z,1.90
2023-03-16T10:07:30.630Z,1.90
2023-03-16T10:09:59.025Z,1.77
2023-03-16T10:12:30.026Z,1.63
2023-03-16T10:15:09.676Z,1.50
2023-03-16T10:17:41.047Z,1.70
2023-03-16T10:20:12.950Z,1.50
2023-03-16T10:22:43.095Z,1.70
2023-03-16T10:25:28.804Z,1.60
2023-03-16T10:27:57.393Z,1.87
2023-03-16T10:30:27.947Z,1.50
2023-03-16T10:32:56.168Z,1.60
2023-03-16T10:35:23.395Z,1.70
2023-03-16T10:37:51.647Z,1.60
2023-03-16T10:40:20.345Z,1.67
2023-03-16T10:42:47.927Z,1.53
2023-03-16T10:45:27.568Z,1.60
2023-03-16T10:47:55.983Z,1.50
2023-03-16T10:50:25.154Z,1.40
2023-03-16T10:52:53.379Z,1.50
2023-03-16T10:55:22.018Z,1.57
2023-03-16T10:57:55.761Z,1.53
2023-03-16T11:00:26.105Z,1.50
2023-03-16T11:02:56.811Z,1.60
2023-03-16T11:05:23.960Z,1.30
2023-03-16T11:07:52.317Z,1.40
2023-03-16T11:10:26.567Z,1.80
2023-03-16T11:12:53.948Z,1.43
2023-03-16T11:15:26.069Z,1.60
2023-03-16T11:17:54.683Z,1.50
2023-03-16T11:20:25.207Z,1.80
2023-03-16T11:22:52.729Z,1.63
2023-03-16T11:25:22.050Z,1.60
2023-03-16T11:28:13.049Z,1.67
2023-03-16T11:30:43.828Z,1.60
2023-03-16T11:33:14.080Z,1.67
2023-03-16T11:35:58.101Z,1.97
2023-03-16T11:38:29.321Z,1.80
2023-03-16T11:41:01.472Z,1.80
2023-03-16T11:43:47.488Z,2.00
2023-03-16T11:46:15.484Z,2.20
2023-03-16T11:48:50.517Z,1.90
2023-03-16T11:51:17.621Z,1.60
2023-03-16T11:53:48.409Z,2.13
2023-03-16T11:56:31.115Z,1.80
2023-03-16T11:58:58.278Z,2.03
2023-03-16T12:01:32.456Z,1.70
2023-03-16T12:04:07.449Z,1.90
2023-03-16T12:06:53.471Z,1.70
2023-03-16T12:09:43.219Z,2.93
2023-03-16T12:12:49.135Z,1.80
2023-03-16T12:15:22.427Z,1.70
2023-03-16T12:17:51.358Z,1.67
2023-03-16T12:20:21.175Z,1.40
2023-03-16T12:22:51.507Z,1.60
2023-03-16T12:25:24.919Z,1.50
2023-03-16T12:27:54.476Z,1.50
2023-03-16T12:30:21.678Z,1.67
2023-03-16T12:32:55.425Z,1.40
2023-03-16T12:35:45.702Z,1.40
2023-03-16T12:38:25.018Z,2.50
2023-03-16T12:40:55.138Z,1.63
2023-03-16T12:43:25.568Z,1.50
2023-03-16T12:45:59.244Z,1.60
2023-03-16T12:48:32.033Z,1.50
2023-03-16T12:51:00.786Z,1.50
2023-03-16T12:53:28.530Z,1.53
2023-03-16T12:55:57.298Z,1.60
2023-03-16T12:58:26.266Z,1.40
2023-03-16T13:00:57.993Z,1.50
2023-03-16T13:03:25.870Z,1.70
2023-03-16T13:05:54.640Z,1.77
2023-03-16T13:08:23.455Z,1.80
2023-03-16T13:11:03.286Z,1.50
2023-03-16T13:13:30.596Z,1.70
2023-03-16T13:16:10.038Z,1.60
2023-03-16T13:18:39.250Z,1.60
2023-03-16T13:21:20.464Z,1.50
2023-03-16T13:23:47.572Z,1.50
2023-03-16T13:26:15.763Z,1.27
2023-03-16T13:28:45.346Z,1.33
2023-03-16T13:31:26.981Z,1.23
2023-03-16T13:33:55.941Z,1.17
2023-03-16T13:36:23.902Z,1.57
2023-03-16T13:39:17.480Z,1.30
2023-03-16T13:41:54.801Z,1.30
2023-03-16T13:44:23.839Z,1.57
2023-03-16T13:46:50.949Z,1.20
2023-03-16T13:49:18.496Z,1.20
2023-03-16T13:51:47.180Z,1.03
2023-03-16T13:54:19.822Z,1.10
2023-03-16T13:56:47.404Z,1.80
2023-03-16T13:59:15.630Z,1.40
2023-03-16T14:01:48.473Z,1.50
2023-03-16T14:04:19.077Z,1.20
2023-03-16T14:06:53.382Z,1.37
2023-03-16T14:09:21.873Z,2.00
2023-03-16T14:11:49.020Z,1.30
2023-03-16T14:14:17.319Z,1.10
2023-03-16T14:16:45.630Z,0.90
2023-03-16T14:19:32.318Z,1.30
2023-03-16T14:22:04.113Z,1.20
2023-03-16T14:24:31.246Z,1.40
2023-03-16T14:26:58.821Z,1.10
2023-03-16T14:29:31.432Z,1.10
2023-03-16T14:32:00.025Z,1.20
2023-03-16T14:34:32.457Z,1.00
2023-03-16T14:37:09.728Z,1.00
2023-03-16T14:39:37.700Z,1.30
2023-03-16T14:42:06.773Z,1.13
2023-03-16T14:44:36.980Z,1.50
2023-03-16T14:47:06.096Z,1.37
2023-03-16T14:49:35.561Z,1.10
2023-03-16T14:52:08.272Z,1.20
2023-03-16T14:54:35.506Z,1.10
2023-03-16T14:57:05.759Z,1.20
2023-03-16T14:59:33.813Z,1.10
2023-03-16T15:02:02.323Z,1.10
2023-03-16T15:04:31.368Z,1.20
2023-03-16T15:06:59.409Z,1.30
2023-03-16T15:09:35.701Z,0.90
2023-03-16T15:12:02.923Z,1.47
2023-03-16T15:14:48.677Z,1.40
2023-03-16T15:17:16.536Z,1.40
2023-03-16T15:19:43.720Z,1.47
2023-03-16T15:22:12.359Z,1.40
2023-03-16T15:24:39.502Z,1.23
2023-03-16T15:27:11.001Z,1.40
2023-03-16T15:29:38.158Z,1.60
2023-03-16T15:32:07.092Z,1.30
2023-03-16T15:34:34.267Z,1.30
2023-03-16T15:37:01.627Z,1.20
2023-03-16T15:39:28.848Z,1.50
2023-03-16T15:41:56.437Z,1.20
2023-03-16T15:44:23.574Z,1.30
2023-03-16T15:46:51.467Z,1.30
2023-03-16T15:49:18.800Z,1.40
2023-03-16T15:51:46.125Z,1.30
2023-03-16T15:54:13.410Z,1.20
2023-03-16T15:56:53.155Z,1.30
2023-03-16T15:59:22.083Z,1.23
2023-03-16T16:01:49.255Z,1.30
2023-03-16T16:04:19.583Z,1.27
2023-03-16T16:06:47.585Z,1.10
2023-03-16T16:09:14.884Z,1.10
2023-03-16T16:11:42.784Z,1.00
2023-03-16T16:14:13.177Z,1.27
2023-03-16T16:16:40.893Z,1.10
2023-03-16T16:19:11.021Z,1.80
2023-03-16T16:21:38.175Z,1.40
2023-03-16T16:24:05.778Z,1.20
2023-03-16T16:26:54.750Z,1.10
2023-03-16T16:29:23.809Z,1.23
2023-03-16T16:31:54.023Z,1.60
2023-03-16T16:34:24.404Z,1.60
2023-03-16T16:36:51.805Z,1.40
2023-03-16T16:39:19.025Z,1.13
2023-03-16T16:41:46.239Z,1.30
2023-03-16T16:44:21.457Z,1.47
2023-03-16T16:46:49.288Z,1.40
2023-03-16T16:49:19.509Z,1.10
2023-03-16T16:51:46.817Z,1.20
2023-03-16T16:54:15.603Z,1.30
2023-03-16T16:56:43.481Z,1.30
2023-03-16T16:59:18.367Z,1.60
2023-03-16T17:01:46.752Z,1.30
2023-03-16T17:04:16.511Z,1.40
2023-03-16T17:06:44.089Z,1.17
2023-03-16T17:09:14.209Z,1.00
2023-03-16T17:11:42.415Z,1.03
2023-03-16T17:14:09.736Z,1.07
2023-03-16T17:16:37.864Z,1.17
2023-03-16T17:19:06.991Z,1.40
2023-03-16T17:21:34.581Z,1.30
2023-03-16T17:24:02.639Z,1.60
2023-03-16T17:26:31.870Z,1.10
2023-03-16T17:29:01.928Z,1.10
2023-03-16T17:31:34.965Z,1.30
2023-03-16T17:34:03.379Z,1.20
2023-03-16T17:36:30.638Z,1.30
2023-03-16T17:38:58.060Z,1.30
2023-03-16T17:41:27.022Z,1.37
2023-03-16T17:43:55.708Z,1.30
2023-03-16T17:46:27.242Z,1.30
2023-03-16T17:48:56.037Z,1.40
2023-03-16T17:51:25.511Z,1.50
2023-03-16T17:53:54.212Z,1.40
2023-03-16T17:56:22.821Z,2.33
2023-03-16T17:58:53.736Z,1.30
2023-03-16T18:01:21.907Z,1.43
2023-03-16T18:03:49.092Z,1.23
2023-03-16T18:06:19.415Z,1.30
2023-03-16T18:08:48.425Z,1.30
2023-03-16T18:11:19.312Z,1.20
2023-03-16T18:13:48.291Z,1.20
2023-03-16T18:16:18.017Z,1.50
2023-03-16T18:18:45.356Z,1.67
2023-03-16T18:21:19.929Z,1.30
2023-03-16T18:23:47.058Z,1.40
2023-03-16T18:26:14.586Z,1.40
2023-03-16T18:28:41.951Z,1.60
2023-03-16T18:31:18.552Z,1.40
2023-03-16T18:33:46.725Z,1.37
2023-03-16T18:36:16.505Z,1.20
2023-03-16T18:38:44.790Z,1.10
2023-03-16T18:41:18.224Z,1.40
2023-03-16T18:43:45.654Z,1.33
2023-03-16T18:46:22.028Z,1.27
2023-03-16T18:48:49.456Z,1.27
2023-03-16T18:51:16.860Z,1.40
2023-03-16T18:53:44.081Z,1.60
2023-03-16T18:56:17.722Z,1.80
2023-03-16T18:58:45.704Z,1.60
2023-03-16T19:01:21.551Z,1.30
2023-03-16T19:03:48.853Z,1.50
2023-03-16T19:06:20.221Z,1.50
2023-03-16T19:08:47.351Z,1.40
2023-03-16T19:11:14.534Z,1.27
2023-03-16T19:13:41.789Z,1.40
2023-03-16T19:16:15.504Z,1.43
2023-03-16T19:18:42.719Z,1.43
2023-03-16T19:21:22.811Z,1.63
2023-03-16T19:23:56.415Z,1.50
2023-03-16T19:26:23.849Z,1.40
2023-03-16T19:28:51.360Z,1.20
2023-03-16T19:31:18.888Z,1.40
2023-03-16T19:33:46.506Z,1.60
2023-03-16T19:36:18.021Z,1.30
2023-03-16T19:38:46.768Z,1.40
2023-03-16T19:41:22.798Z,1.40
2023-03-16T19:43:51.421Z,1.40
2023-03-16T19:46:18.714Z,1.30
2023-03-16T19:48:45.972Z,1.30
2023-03-16T19:51:14.054Z,1.20
2023-03-16T19:53:41.496Z,1.20
2023-03-16T19:56:16.135Z,1.30
2023-03-16T19:58:45.780Z,1.17
2023-03-16T20:01:22.027Z,1.40
2023-03-16T20:03:50.382Z,1.20
2023-03-16T20:06:18.870Z,1.23
2023-03-16T20:08:46.927Z,1.20
2023-03-16T20:11:26.652Z,1.50
2023-03-16T20:13:53.912Z,1.30
2023-03-16T20:16:32.148Z,1.50
2023-03-16T20:19:00.320Z,1.60
2023-03-16T20:21:27.937Z,1.60
2023-03-16T20:23:55.272Z,1.27
2023-03-16T20:26:29.056Z,1.43
2023-03-16T20:28:56.647Z,1.13
2023-03-16T20:31:25.517Z,1.27
2023-03-16T20:33:53.325Z,1.60
2023-03-16T20:36:21.330Z,1.10
2023-03-16T20:38:48.900Z,1.13
2023-03-16T20:41:28.029Z,1.10
2023-03-16T20:43:55.806Z,1.13
2023-03-16T20:46:25.279Z,1.17
2023-03-16T20:48:52.597Z,1.40
2023-03-16T20:51:19.731Z,1.03
2023-03-16T20:53:47.612Z,1.13
2023-03-16T20:56:19.078Z,1.10
2023-03-16T20:58:47.851Z,1.37
2023-03-16T21:01:20.882Z,0.93
2023-03-16T21:03:49.064Z,1.07
2023-03-16T21:06:23.673Z,1.00
2023-03-16T21:08:52.050Z,1.00
2023-03-16T21:11:32.785Z,1.00
2023-03-16T21:14:00.007Z,0.93
2023-03-16T21:16:27.198Z,1.60
2023-03-16T21:18:54.412Z,1.20
2023-03-16T21:21:21.714Z,1.20
2023-03-16T21:23:49.194Z,1.00
2023-03-16T21:26:20.860Z,1.10
2023-03-16T21:28:58.441Z,1.00
2023-03-16T21:31:27.140Z,0.73
2023-03-16T21:33:54.873Z,1.27
2023-03-16T21:36:23.761Z,1.00
2023-03-16T21:38:51.585Z,1.10
2023-03-16T21:41:18.854Z,0.77
2023-03-16T21:43:47.247Z,0.80
2023-03-16T21:46:16.491Z,0.90
2023-03-16T21:48:44.547Z,1.27
2023-03-16T21:51:19.098Z,0.83
2023-03-16T21:53:46.822Z,0.73
2023-03-16T21:56:18.021Z,0.60
2023-03-16T21:58:45.845Z,0.83
2023-03-16T22:01:24.778Z,0.77
2023-03-16T22:03:53.815Z,0.80
2023-03-16T22:06:22.035Z,1.00
2023-03-16T22:08:51.143Z,0.70
2023-03-16T22:11:23.126Z,1.20
2023-03-16T22:13:51.204Z,0.90
2023-03-16T22:16:19.576Z,0.90
2023-03-16T22:18:47.765Z,1.13
2023-03-16T22:21:35.298Z,0.80
2023-03-16T22:24:05.269Z,1.00
2023-03-16T22:26:32.655Z,1.00
2023-03-16T22:29:03.862Z,0.83
2023-03-16T22:31:33.668Z,1.10
2023-03-16T22:34:01.945Z,0.70
2023-03-16T22:36:29.200Z,0.97
2023-03-16T22:39:01.652Z,1.07
2023-03-16T22:41:29.797Z,1.03
2023-03-16T22:43:57.260Z,1.10
2023-03-16T22:46:26.076Z,1.10
2023-03-16T22:48:53.877Z,1.10
2023-03-16T22:51:21.149Z,1.13
2023-03-16T22:53:48.586Z,1.60
2023-03-16T22:56:15.873Z,1.00
2023-03-16T22:58:48.337Z,1.37
2023-03-16T23:01:17.897Z,1.37
2023-03-16T23:03:46.382Z,1.30
2023-03-16T23:06:17.105Z,1.20
2023-03-16T23:08:44.317Z,1.30
2023-03-16T23:11:31.361Z,1.20
2023-03-16T23:13:58.862Z,1.23
2023-03-16T23:16:27.620Z,1.23
2023-03-16T23:18:54.921Z,1.27
2023-03-16T23:21:23.391Z,1.00
2023-03-16T23:24:02.593Z,1.70
2023-03-16T23:26:31.258Z,1.10
2023-03-16T23:28:58.458Z,1.13
2023-03-16T23:31:26.032Z,1.40
2023-03-16T23:33:53.276Z,1.43
2023-03-16T23:36:21.452Z,1.30
2023-03-16T23:38:49.327Z,1.50
2023-03-16T23:41:18.921Z,1.30
2023-03-16T23:43:46.742Z,1.10
2023-03-16T23:46:14.693Z,1.80
2023-03-16T23:48:43.084Z,1.30
2023-03-16T23:51:20.360Z,1.20
2023-03-16T23:53:47.981Z,1.10
2023-03-16T23:56:15.152Z,1.33
2023-03-16T23:58:42.263Z,1.20
